createdAt,value
2018-07-25T00:02:22.953Z,7.03
2018-07-25T00:04:51.423Z,6.67
2018-07-25T00:07:19.844Z,7.07
2018-07-25T00:09:48.292Z,6.47
2018-07-25T00:12:16.720Z,6.13
2018-07-25T00:14:45.088Z,6.57
2018-07-25T00:17:13.448Z,7.30
2018-07-25T00:19:41.885Z,7.37
2018-07-25T00:22:10.383Z,7.70
2018-07-25T00:24:39.313Z,7.40
2018-07-25T00:27:07.797Z,6.93
2018-07-25T00:29:36.237Z,7.03
2018-07-25T00:32:04.669Z,7.30
2018-07-25T00:34:33.143Z,7.40
2018-07-25T00:37:01.598Z,7.00
2018-07-25T00:39:30.093Z,7.40
2018-07-25T00:41:58.576Z,7.70
2018-07-25T00:44:26.973Z,7.10
2018-07-25T00:46:55.396Z,7.90
2018-07-25T00:49:23.851Z,7.37
2018-07-25T00:51:52.257Z,8.37
2018-07-25T00:54:20.684Z,7.40
2018-07-25T00:56:49.139Z,7.43
2018-07-25T00:59:17.533Z,8.50
2018-07-25T01:01:45.913Z,8.10
2018-07-25T01:04:14.316Z,8.10
2018-07-25T01:06:42.739Z,7.77
2018-07-25T01:09:11.840Z,7.70
2018-07-25T01:11:40.372Z,8.13
2018-07-25T01:14:08.871Z,7.60
2018-07-25T01:16:37.279Z,8.20
2018-07-25T01:19:05.744Z,8.70
2018-07-25T01:21:34.137Z,8.13
2018-07-25T01:24:02.488Z,8.40
2018-07-25T01:26:30.915Z,9.50
2018-07-25T01:28:59.356Z,9.63
2018-07-25T01:31:27.809Z,9.70
2018-07-25T01:33:56.239Z,8.80
2018-07-25T01:36:24.642Z,8.10
2018-07-25T01:38:53.007Z,8.63
2018-07-25T01:41:21.376Z,8.37
2018-07-25T01:43:49.865Z,8.07
2018-07-25T01:46:18.216Z,8.73
2018-07-25T01:48:46.608Z,8.87
2018-07-25T01:51:14.980Z,7.30
2018-07-25T01:53:43.464Z,8.67
2018-07-25T01:56:11.834Z,8.40
2018-07-25T01:58:40.225Z,7.90
2018-07-25T02:01:08.757Z,8.60
2018-07-25T02:03:37.180Z,8.47
2018-07-25T02:06:05.960Z,8.17
2018-07-25T02:08:34.313Z,8.10
2018-07-25T02:11:02.714Z,8.30
2018-07-25T02:13:31.132Z,7.67
2018-07-25T02:15:59.529Z,8.03
2018-07-25T02:18:27.921Z,8.30
2018-07-25T02:20:56.355Z,8.13
2018-07-25T02:23:24.743Z,8.10
2018-07-25T02:25:53.184Z,7.90
2018-07-25T02:28:21.570Z,7.87
2018-07-25T02:30:49.976Z,8.50
2018-07-25T02:33:21.360Z,8.00
2018-07-25T02:35:49.779Z,9.23
2018-07-25T02:38:18.136Z,8.67
2018-07-25T02:40:46.545Z,8.03
2018-07-25T02:43:14.933Z,8.63
2018-07-25T02:45:46.557Z,8.77
2018-07-25T02:48:15.949Z,8.73
2018-07-25T02:50:44.570Z,8.23
2018-07-25T02:53:13.305Z,8.77
2018-07-25T02:55:41.724Z,9.00
2018-07-25T02:58:10.136Z,9.10
2018-07-25T03:00:38.546Z,10.00
2018-07-25T03:03:06.983Z,9.27
2018-07-25T03:05:35.383Z,8.27
2018-07-25T03:08:03.940Z,9.40
2018-07-25T03:10:32.390Z,8.93
2018-07-25T03:13:00.836Z,9.53
2018-07-25T03:15:29.221Z,9.03
2018-07-25T03:17:57.687Z,9.53
2018-07-25T03:20:26.108Z,9.07
2018-07-25T03:22:54.513Z,8.53
2018-07-25T03:25:22.983Z,8.93
2018-07-25T03:27:51.472Z,9.23
2018-07-25T03:30:19.860Z,9.57
2018-07-25T03:32:48.242Z,8.43
2018-07-25T03:35:16.681Z,8.87
2018-07-25T03:37:45.055Z,8.20
2018-07-25T03:40:13.454Z,9.00
2018-07-25T03:42:41.818Z,8.47
2018-07-25T03:45:10.222Z,8.40
2018-07-25T03:47:38.653Z,7.87
2018-07-25T03:50:07.129Z,9.60
2018-07-25T03:52:35.531Z,8.60
2018-07-25T03:55:04.041Z,9.97
2018-07-25T03:57:32.437Z,10.10
2018-07-25T04:00:00.878Z,9.50
2018-07-25T04:02:29.318Z,10.03
2018-07-25T04:04:57.728Z,10.03
2018-07-25T04:07:26.140Z,9.53
2018-07-25T04:09:54.563Z,8.50
2018-07-25T04:12:22.974Z,10.40
2018-07-25T04:14:51.329Z,9.13
2018-07-25T04:17:19.753Z,9.17
2018-07-25T04:19:48.189Z,9.67
2018-07-25T04:22:16.706Z,9.37
2018-07-25T04:24:45.161Z,8.47
2018-07-25T04:27:13.540Z,10.00
2018-07-25T04:29:41.954Z,9.10
2018-07-25T04:32:10.379Z,9.70
2018-07-25T04:34:37.756Z,9.30
2018-07-25T04:37:06.217Z,10.27
2018-07-25T04:39:34.586Z,10.17
2018-07-25T04:42:03.034Z,10.87
2018-07-25T04:44:31.459Z,12.67
2018-07-25T04:46:59.982Z,12.20
2018-07-25T04:49:28.430Z,11.77
2018-07-25T04:51:57.555Z,11.50
2018-07-25T04:54:26.031Z,12.10
2018-07-25T04:56:54.493Z,11.13
2018-07-25T04:59:22.904Z,10.97
2018-07-25T05:01:51.325Z,11.83
2018-07-25T05:04:19.748Z,12.17
2018-07-25T05:06:48.152Z,13.23
2018-07-25T05:09:16.613Z,13.17
2018-07-25T05:11:45.113Z,11.97
2018-07-25T05:14:13.505Z,12.60
2018-07-25T05:16:41.925Z,12.40
2018-07-25T05:19:10.516Z,12.57
2018-07-25T05:21:38.995Z,11.90
2018-07-25T05:24:07.555Z,12.03
2018-07-25T05:26:35.971Z,11.70
2018-07-25T05:29:04.442Z,11.87
2018-07-25T05:31:32.803Z,12.37
2018-07-25T05:34:01.228Z,13.70
2018-07-25T05:36:29.591Z,11.80
2018-07-25T05:38:58.128Z,12.90
2018-07-25T05:41:26.507Z,12.97
2018-07-25T05:43:54.934Z,11.90
2018-07-25T05:46:23.332Z,13.80
2018-07-25T05:48:51.742Z,12.40
2018-07-25T05:51:20.201Z,13.90
2018-07-25T05:53:48.755Z,12.63
2018-07-25T05:56:17.189Z,13.20
2018-07-25T05:58:45.640Z,13.20
2018-07-25T06:01:14.089Z,13.87
2018-07-25T06:03:42.527Z,15.77
2018-07-25T06:06:11.012Z,14.73
2018-07-25T06:08:39.418Z,13.33
2018-07-25T06:11:08.075Z,14.23
2018-07-25T06:13:37.037Z,13.27
2018-07-25T06:16:05.681Z,14.50
2018-07-25T06:18:34.346Z,14.73
2018-07-25T06:21:02.864Z,15.93
2018-07-25T06:23:31.256Z,15.00
2018-07-25T06:26:00.136Z,14.20
2018-07-25T06:28:29.132Z,14.17
2018-07-25T06:30:57.594Z,14.10
2018-07-25T06:33:26.020Z,16.23
2018-07-25T06:35:54.482Z,17.90
2018-07-25T06:38:22.974Z,16.20
2018-07-25T06:40:51.364Z,16.03
2018-07-25T06:43:19.855Z,15.87
2018-07-25T06:45:48.264Z,16.10
2018-07-25T06:48:17.067Z,14.70
2018-07-25T06:50:45.528Z,15.00
2018-07-25T06:53:13.988Z,15.43
2018-07-25T06:55:42.440Z,13.73
2018-07-25T06:58:10.936Z,14.10
2018-07-25T07:00:39.559Z,12.70
2018-07-25T07:03:07.967Z,14.53
2018-07-25T07:05:36.568Z,15.00
2018-07-25T07:08:05.108Z,14.43
2018-07-25T07:10:33.529Z,14.97
2018-07-25T07:13:02.114Z,14.80
2018-07-25T07:15:30.533Z,13.60
2018-07-25T07:17:59.003Z,16.27
2018-07-25T07:20:27.448Z,15.83
2018-07-25T07:22:55.904Z,13.90
2018-07-25T07:25:24.368Z,15.73
2018-07-25T07:27:52.912Z,17.53
2018-07-25T07:30:21.556Z,25.10
2018-07-25T07:32:50.000Z,15.67
2018-07-25T07:35:18.571Z,16.53
2018-07-25T07:37:47.104Z,14.80
2018-07-25T07:40:15.630Z,15.97
2018-07-25T07:42:44.051Z,14.70
2018-07-25T07:45:12.814Z,15.67
2018-07-25T07:47:41.476Z,16.00
2018-07-25T07:50:10.102Z,15.77
2018-07-25T07:52:38.597Z,15.73
2018-07-25T07:55:07.035Z,15.80
2018-07-25T07:57:35.816Z,14.73
2018-07-25T08:00:05.060Z,15.17
2018-07-25T08:02:33.480Z,22.43
2018-07-25T08:05:02.366Z,16.00
2018-07-25T08:07:30.799Z,15.50
2018-07-25T08:09:59.190Z,16.70
2018-07-25T08:12:27.622Z,15.83
2018-07-25T08:14:56.119Z,13.40
2018-07-25T08:17:24.677Z,15.07
2018-07-25T08:19:53.140Z,17.03
2018-07-25T08:22:21.613Z,16.90
2018-07-25T08:24:50.117Z,18.43
2018-07-25T08:27:18.602Z,15.83
2018-07-25T08:29:47.032Z,14.90
2018-07-25T08:32:16.696Z,16.30
2018-07-25T08:34:45.462Z,14.87
2018-07-25T08:37:13.883Z,15.37
2018-07-25T08:39:42.345Z,14.23
2018-07-25T08:42:10.741Z,15.13
2018-07-25T08:44:39.144Z,14.20
2018-07-25T08:47:07.628Z,15.20
2018-07-25T08:49:36.078Z,13.23
2018-07-25T08:52:04.579Z,13.83
2018-07-25T08:54:32.992Z,14.10
2018-07-25T08:57:01.428Z,14.53
2018-07-25T08:59:29.835Z,12.60
2018-07-25T09:01:58.324Z,12.53
2018-07-25T09:04:26.690Z,12.60
2018-07-25T09:06:55.172Z,12.20
2018-07-25T09:09:23.739Z,12.73
2018-07-25T09:11:52.192Z,11.87
2018-07-25T09:14:20.624Z,10.80
2018-07-25T09:16:49.066Z,11.80
2018-07-25T09:19:17.486Z,11.03
2018-07-25T09:21:45.941Z,10.53
2018-07-25T09:24:14.316Z,12.40
2018-07-25T09:26:42.814Z,10.30
2018-07-25T09:29:11.254Z,10.13
2018-07-25T09:31:39.656Z,10.07
2018-07-25T09:34:08.196Z,10.33
2018-07-25T09:36:36.606Z,8.20
2018-07-25T09:39:08.145Z,9.33
2018-07-25T09:41:36.524Z,8.30
2018-07-25T09:44:04.999Z,8.60
2018-07-25T09:46:33.567Z,8.23
2018-07-25T09:49:01.895Z,8.63
2018-07-25T09:51:30.405Z,8.80
2018-07-25T09:53:58.796Z,7.50
2018-07-25T09:56:27.267Z,7.30
2018-07-25T09:58:55.839Z,7.30
2018-07-25T10:01:24.201Z,7.20
2018-07-25T10:03:52.603Z,7.10
2018-07-25T10:06:21.012Z,7.33
2018-07-25T10:08:49.493Z,6.07
2018-07-25T10:11:17.895Z,6.23
2018-07-25T10:13:46.336Z,6.23
2018-07-25T10:16:14.769Z,6.30
2018-07-25T10:18:43.303Z,6.40
2018-07-25T10:21:11.746Z,6.33
2018-07-25T10:23:40.218Z,6.20
2018-07-25T10:26:08.736Z,6.20
2018-07-25T10:28:37.183Z,6.47
2018-07-25T10:31:05.665Z,6.33
2018-07-25T10:33:34.206Z,5.80
2018-07-25T10:36:02.623Z,5.70
2018-07-25T10:38:31.032Z,6.40
2018-07-25T10:40:59.438Z,6.93
2018-07-25T10:43:28.256Z,6.70
2018-07-25T10:45:56.696Z,6.10
2018-07-25T10:48:25.128Z,6.27
2018-07-25T10:50:53.557Z,6.93
2018-07-25T10:53:22.092Z,6.30
2018-07-25T10:55:50.523Z,6.80
2018-07-25T10:58:18.928Z,6.03
2018-07-25T11:00:48.281Z,6.10
2018-07-25T11:03:16.776Z,5.80
2018-07-25T11:05:45.222Z,6.67
2018-07-25T11:08:13.771Z,6.23
2018-07-25T11:10:42.267Z,6.03
2018-07-25T11:13:10.848Z,6.73
2018-07-25T11:15:39.331Z,6.93
2018-07-25T11:18:07.908Z,6.10
2018-07-25T11:20:36.395Z,6.50
2018-07-25T11:23:04.876Z,6.53
2018-07-25T11:25:33.283Z,7.13
2018-07-25T11:28:01.853Z,7.10
2018-07-25T11:30:30.323Z,7.93
2018-07-25T11:32:58.804Z,8.23
2018-07-25T11:35:27.223Z,6.37
2018-07-25T11:37:55.716Z,6.80
2018-07-25T11:40:24.160Z,6.90
2018-07-25T11:42:53.088Z,7.13
2018-07-25T11:45:21.512Z,6.83
2018-07-25T11:47:50.041Z,6.80
2018-07-25T11:50:18.571Z,8.17
2018-07-25T11:52:47.005Z,6.97
2018-07-25T11:55:15.471Z,6.20
2018-07-25T11:57:43.971Z,6.77
2018-07-25T12:00:12.492Z,6.43
2018-07-25T12:02:40.896Z,6.83
2018-07-25T12:05:09.393Z,5.90
2018-07-25T12:07:38.152Z,6.10
2018-07-25T12:10:06.639Z,5.97
2018-07-25T12:12:35.169Z,6.23
2018-07-25T12:15:03.624Z,5.57
2018-07-25T12:17:32.056Z,5.50
2018-07-25T12:20:00.600Z,4.80
2018-07-25T12:22:29.019Z,4.90
2018-07-25T12:24:57.410Z,5.13
2018-07-25T12:27:25.889Z,6.20
2018-07-25T12:29:54.272Z,4.57
2018-07-25T12:32:22.690Z,4.80
2018-07-25T12:34:51.089Z,5.00
2018-07-25T12:37:19.511Z,5.53
2018-07-25T12:39:49.057Z,5.40
2018-07-25T12:42:17.528Z,4.90
2018-07-25T12:44:46.041Z,5.10
2018-07-25T12:47:14.455Z,5.07
2018-07-25T12:49:42.884Z,5.60
2018-07-25T12:52:11.312Z,5.17
2018-07-25T12:54:39.720Z,5.27
2018-07-25T12:57:08.332Z,4.50
2018-07-25T12:59:36.803Z,4.93
2018-07-25T13:02:05.337Z,4.87
2018-07-25T13:04:33.814Z,4.73
2018-07-25T13:07:02.441Z,5.30
2018-07-25T13:09:30.867Z,4.43
2018-07-25T13:11:59.337Z,4.50
2018-07-25T13:14:27.761Z,4.20
2018-07-25T13:16:56.272Z,4.80
2018-07-25T13:19:24.707Z,4.93
2018-07-25T13:21:53.760Z,4.60
2018-07-25T13:24:22.516Z,4.90
2018-07-25T13:26:51.008Z,4.40
2018-07-25T13:29:19.491Z,5.03
2018-07-25T13:31:47.896Z,4.70
2018-07-25T13:34:16.375Z,4.30
2018-07-25T13:36:44.802Z,4.23
2018-07-25T13:39:13.421Z,4.40
2018-07-25T13:41:41.851Z,4.70
2018-07-25T13:44:10.433Z,4.43
2018-07-25T13:46:38.869Z,10.10
2018-07-25T13:49:07.304Z,8.50
2018-07-25T13:51:35.695Z,9.37
2018-07-25T13:54:04.272Z,10.67
2018-07-25T13:56:32.741Z,10.93
2018-07-25T13:59:01.211Z,11.57
2018-07-25T14:01:30.227Z,9.23
2018-07-25T14:03:58.732Z,10.63
2018-07-25T14:06:27.303Z,8.90
2018-07-25T14:08:55.768Z,9.03
2018-07-25T14:11:24.239Z,9.77
2018-07-25T14:13:52.774Z,6.63
2018-07-25T14:16:21.216Z,8.00
2018-07-25T14:18:49.997Z,7.63
2018-07-25T14:21:18.482Z,8.70
2018-07-25T14:23:47.032Z,9.80
2018-07-25T14:26:15.421Z,11.20
2018-07-25T14:28:43.940Z,10.80
2018-07-25T14:31:12.373Z,11.43
2018-07-25T14:33:40.771Z,11.33
2018-07-25T14:36:09.319Z,11.50
2018-07-25T14:38:37.721Z,11.50
2018-07-25T14:41:06.514Z,13.00
2018-07-25T14:43:35.850Z,10.20
2018-07-25T14:46:04.380Z,13.07
2018-07-25T14:48:32.876Z,12.00
2018-07-25T14:51:01.324Z,12.13
2018-07-25T14:53:29.822Z,12.90
2018-07-25T14:55:58.199Z,14.50
2018-07-25T14:58:27.672Z,11.90
2018-07-25T15:00:56.920Z,12.20
2018-07-25T15:03:25.671Z,12.27
2018-07-25T15:05:54.163Z,12.70
2018-07-25T15:08:22.647Z,12.93
2018-07-25T15:10:51.388Z,12.40
2018-07-25T15:13:20.109Z,12.13
2018-07-25T15:15:48.513Z,14.33
2018-07-25T15:18:16.951Z,14.13
2018-07-25T15:20:45.444Z,14.53
2018-07-25T15:23:19.088Z,13.37
2018-07-25T15:25:47.545Z,14.20
2018-07-25T15:28:16.129Z,13.80
2018-07-25T15:30:45.544Z,14.37
2018-07-25T15:33:14.041Z,13.33
2018-07-25T15:35:42.508Z,14.57
2018-07-25T15:38:10.952Z,14.90
2018-07-25T15:40:39.424Z,17.10
2018-07-25T15:43:07.945Z,20.60
2018-07-25T15:45:36.365Z,13.43
2018-07-25T15:48:04.874Z,14.57
2018-07-25T15:50:33.347Z,14.80
2018-07-25T15:53:01.810Z,14.60
2018-07-25T15:55:31.129Z,13.10
2018-07-25T15:57:59.621Z,13.90
2018-07-25T16:00:28.034Z,12.57
2018-07-25T16:02:56.553Z,11.30
2018-07-25T16:05:25.081Z,11.33
2018-07-25T16:07:53.488Z,9.80
2018-07-25T16:10:22.026Z,10.40
2018-07-25T16:12:50.455Z,12.17
2018-07-25T16:15:18.968Z,7.60
2018-07-25T16:17:47.534Z,8.03
2018-07-25T16:20:17.125Z,6.90
2018-07-25T16:22:45.652Z,6.50
2018-07-25T16:25:15.061Z,5.60
2018-07-25T16:27:43.548Z,6.13
2018-07-25T16:30:12.049Z,5.40
2018-07-25T16:32:41.078Z,6.77
2018-07-25T16:35:09.815Z,6.77
2018-07-25T16:37:38.328Z,7.90
2018-07-25T16:40:06.853Z,6.80
2018-07-25T16:42:35.255Z,6.90
2018-07-25T16:45:03.934Z,17.53
2018-07-25T16:47:32.392Z,15.23
2018-07-25T16:50:00.882Z,8.93
2018-07-25T16:52:29.421Z,7.97
2018-07-25T16:54:57.842Z,7.80
2018-07-25T16:57:26.285Z,6.80
2018-07-25T16:59:54.786Z,7.40
2018-07-25T17:02:23.284Z,6.40
2018-07-25T17:04:51.746Z,8.03
2018-07-25T17:07:20.157Z,6.60
2018-07-25T17:09:48.566Z,6.00
2018-07-25T17:12:17.030Z,5.70
2018-07-25T17:14:45.514Z,7.00
2018-07-25T17:17:13.978Z,6.67
2018-07-25T17:19:42.592Z,7.07
2018-07-25T17:22:11.067Z,6.20
2018-07-25T17:24:39.536Z,7.20
2018-07-25T17:27:08.093Z,6.50
2018-07-25T17:29:36.685Z,5.80
2018-07-25T17:32:05.241Z,6.20
2018-07-25T17:34:33.752Z,7.37
2018-07-25T17:37:02.241Z,9.50
2018-07-25T17:39:30.732Z,8.73
2018-07-25T17:41:59.223Z,8.30
2018-07-25T17:44:27.753Z,6.67
2018-07-25T17:46:56.237Z,7.80
2018-07-25T17:49:24.694Z,8.90
2018-07-25T17:51:53.142Z,6.57
2018-07-25T17:54:21.661Z,7.50
2018-07-25T17:56:50.111Z,6.43
2018-07-25T17:59:18.551Z,6.40
2018-07-25T18:01:47.021Z,6.80
2018-07-25T18:04:15.452Z,7.17
2018-07-25T18:06:43.958Z,6.70
2018-07-25T18:09:12.423Z,6.77
2018-07-25T18:11:41.843Z,6.80
2018-07-25T18:14:12.225Z,6.10
2018-07-25T18:16:41.250Z,6.70
2018-07-25T18:19:09.757Z,10.10
2018-07-25T18:21:39.090Z,7.03
2018-07-25T18:24:07.589Z,7.30
2018-07-25T18:26:36.104Z,7.77
2018-07-25T18:29:04.933Z,24.43
2018-07-25T18:31:33.704Z,13.07
2018-07-25T18:34:03.177Z,12.20
2018-07-25T18:36:31.711Z,15.93
2018-07-25T18:39:00.239Z,12.87
2018-07-25T18:41:28.756Z,14.20
2018-07-25T18:43:57.225Z,12.03
2018-07-25T18:46:25.985Z,14.87
2018-07-25T18:48:54.831Z,10.30
2018-07-25T18:51:23.830Z,8.70
2018-07-25T18:53:52.585Z,7.63
2018-07-25T18:56:21.429Z,7.27
2018-07-25T18:58:50.369Z,7.37
2018-07-25T19:01:19.014Z,7.30
2018-07-25T19:03:47.581Z,6.70
2018-07-25T19:06:16.031Z,8.80
2018-07-25T19:08:44.541Z,11.83
2018-07-25T19:11:13.214Z,8.00
2018-07-25T19:13:45.826Z,6.90
2018-07-25T19:16:14.420Z,6.60
2018-07-25T19:18:43.312Z,6.20
2018-07-25T19:21:12.061Z,7.03
2018-07-25T19:23:41.794Z,5.83
2018-07-25T19:26:12.919Z,6.20
2018-07-25T19:28:41.776Z,6.20
2018-07-25T19:31:11.426Z,6.30
2018-07-25T19:33:40.501Z,6.23
2018-07-25T19:36:11.027Z,5.90
2018-07-25T19:38:39.910Z,5.80
2018-07-25T19:41:08.823Z,5.80
2018-07-25T19:43:37.504Z,13.53
2018-07-25T19:46:06.373Z,8.00
2018-07-25T19:48:35.215Z,6.47
2018-07-25T19:51:04.117Z,5.40
2018-07-25T19:53:33.067Z,5.43
2018-07-25T19:56:01.983Z,5.27
2018-07-25T19:58:31.596Z,5.43
2018-07-25T20:01:00.634Z,6.20
2018-07-25T20:03:30.090Z,5.10
2018-07-25T20:05:58.827Z,5.37
2018-07-25T20:08:27.677Z,16.03
2018-07-25T20:10:56.290Z,8.30
2018-07-25T20:13:25.082Z,5.70
2018-07-25T20:15:58.816Z,5.50
2018-07-25T20:18:28.111Z,4.90
2018-07-25T20:22:26.070Z,5.77
2018-07-25T20:24:54.733Z,9.80
2018-07-25T20:27:23.374Z,5.30
2018-07-25T20:29:52.152Z,7.20
2018-07-25T20:32:20.768Z,5.43
2018-07-25T20:34:49.420Z,5.87
2018-07-25T20:37:18.059Z,5.27
2018-07-25T20:39:46.744Z,5.23
2018-07-25T20:42:15.623Z,5.10
2018-07-25T20:44:44.033Z,5.10
2018-07-25T20:47:12.607Z,4.63
2018-07-25T20:49:41.112Z,5.70
2018-07-25T20:52:09.500Z,4.83
2018-07-25T20:54:38.044Z,5.10
2018-07-25T20:57:06.060Z,5.63
2018-07-25T20:59:34.693Z,6.10
2018-07-25T21:02:03.454Z,5.10
2018-07-25T21:04:31.986Z,5.13
2018-07-25T21:07:00.529Z,5.57
2018-07-25T21:09:28.966Z,5.10
2018-07-25T21:11:57.960Z,5.70
2018-07-25T21:14:26.811Z,5.37
2018-07-25T21:16:55.283Z,5.47
2018-07-25T21:19:23.813Z,5.30
2018-07-25T21:21:52.266Z,5.30
2018-07-25T21:24:20.776Z,5.60
2018-07-25T21:26:49.226Z,5.53
2018-07-25T21:29:17.669Z,5.10
2018-07-25T21:31:46.113Z,5.17
2018-07-25T21:34:14.683Z,5.17
2018-07-25T21:36:43.124Z,5.90
2018-07-25T21:39:13.203Z,6.50
2018-07-25T21:41:41.900Z,5.10
2018-07-25T21:44:10.283Z,5.17
2018-07-25T21:46:38.655Z,5.47
2018-07-25T21:49:07.151Z,6.00
2018-07-25T21:51:35.584Z,5.13
2018-07-25T21:54:04.013Z,5.70
2018-07-25T21:56:32.622Z,5.27
2018-07-25T21:59:01.665Z,5.60
2018-07-25T22:01:30.233Z,4.93
2018-07-25T22:03:58.651Z,5.60
2018-07-25T22:06:27.262Z,6.17
2018-07-25T22:08:55.771Z,5.97
2018-07-25T22:11:24.260Z,5.60
2018-07-25T22:13:57.232Z,5.70
2018-07-25T22:16:27.179Z,5.50
2018-07-25T22:18:55.784Z,5.93
2018-07-25T22:21:24.210Z,6.53
2018-07-25T22:23:52.866Z,5.73
2018-07-25T22:26:21.335Z,8.80
2018-07-25T22:28:49.722Z,6.07
2018-07-25T22:31:18.246Z,5.13
2018-07-25T22:33:46.715Z,5.70
2018-07-25T22:36:15.120Z,5.87
2018-07-25T22:38:43.611Z,6.50
2018-07-25T22:41:12.028Z,5.80
2018-07-25T22:43:40.473Z,6.80
2018-07-25T22:46:08.932Z,5.80
2018-07-25T22:48:37.386Z,6.63
2018-07-25T22:51:06.285Z,16.00
2018-07-25T22:53:34.857Z,6.97
2018-07-25T22:56:03.304Z,6.77
2018-07-25T22:58:31.796Z,6.93
2018-07-25T23:01:00.172Z,6.80
2018-07-25T23:03:28.606Z,6.20
2018-07-25T23:05:57.084Z,6.50
2018-07-25T23:08:25.507Z,7.20
2018-07-25T23:10:53.930Z,7.10
2018-07-25T23:13:22.383Z,6.53
2018-07-25T23:15:50.852Z,6.40
2018-07-25T23:18:20.130Z,6.50
2018-07-25T23:20:48.529Z,5.83
2018-07-25T23:23:16.928Z,6.80
2018-07-25T23:25:45.324Z,6.10
2018-07-25T23:28:13.714Z,5.83
2018-07-25T23:30:42.139Z,6.13
2018-07-25T23:33:10.614Z,5.70
2018-07-25T23:35:39.051Z,6.40
2018-07-25T23:38:07.628Z,6.43
2018-07-25T23:40:36.040Z,7.37
2018-07-25T23:43:04.408Z,6.03
2018-07-25T23:45:32.915Z,7.90
2018-07-25T23:48:01.337Z,6.40
2018-07-25T23:50:29.880Z,6.70
2018-07-25T23:52:58.325Z,6.70
2018-07-25T23:55:26.749Z,6.80
2018-07-25T23:57:55.201Z,7.33
